Time;durP1;ratioP1;P1;durP2;ratioP2;P2;SDS_P1;SDS_P2;PMS_P1;PMS_P2;Temp;Humidity;BMP_temperature;BMP_pressure;BME280_temperature;BME280_humidity;BME280_pressure;Samples;Min_cycle;Max_cycle;Signal;HPM_P1;HPM_P2
2022/04/20 00:00:41;;;;;;;4.38;2.38;;;7.60;99.90;;;;;;5066954;28;20032;-52
2022/04/20 00:03:07;;;;;;;4.82;2.88;;;7.60;99.90;;;;;;5079850;28;20024;-53
2022/04/20 00:05:33;;;;;;;4.03;2.78;;;7.50;99.90;;;;;;5089024;28;20024;-52
2022/04/20 00:08:00;;;;;;;4.15;2.80;;;7.50;99.90;;;;;;5089201;28;20024;-51
2022/04/20 00:10:26;;;;;;;4.03;2.38;;;7.40;99.90;;;;;;5089197;28;20020;-51
2022/04/20 00:12:51;;;;;;;4.95;2.80;;;7.50;99.90;;;;;;5088664;28;20020;-52
2022/04/20 00:15:17;;;;;;;4.28;2.35;;;7.50;99.90;;;;;;5089114;28;20020;-49
2022/04/20 00:17:42;;;;;;;3.97;3.58;;;7.40;99.90;;;;;;5088888;28;20070;-49
2022/04/20 00:20:08;;;;;;;4.85;2.80;;;7.30;99.90;;;;;;5088677;28;20024;-52
2022/04/20 00:22:34;;;;;;;4.28;2.83;;;7.30;99.90;;;;;;5088243;28;20017;-52
2022/04/20 00:24:59;;;;;;;5.30;3.05;;;7.20;99.90;;;;;;5088716;28;20032;-50
2022/04/20 00:27:25;;;;;;;3.83;2.50;;;7.20;99.90;;;;;;5087404;28;20020;-51
2022/04/20 00:29:50;;;;;;;4.88;2.50;;;7.20;99.90;;;;;;5087186;28;20024;-52
2022/04/20 00:32:16;;;;;;;6.28;3.05;;;7.10;99.90;;;;;;5074351;28;20056;-49
2022/04/20 00:34:41;;;;;;;4.53;2.53;;;7.10;99.90;;;;;;5087805;28;20032;-49
2022/04/20 00:37:07;;;;;;;5.60;2.60;;;7.00;99.90;;;;;;5088548;28;20036;-50
2022/04/20 00:39:33;;;;;;;4.15;2.63;;;7.00;99.90;;;;;;5088560;28;20154;-49
2022/04/20 00:41:58;;;;;;;4.10;3.40;;;7.00;99.90;;;;;;5088249;28;20028;-50
2022/04/20 00:44:25;;;;;;;4.43;2.55;;;6.90;99.90;;;;;;5088377;28;20517;-51
2022/04/20 00:46:52;;;;;;;3.88;2.45;;;6.90;99.90;;;;;;5088169;28;20646;-52
2022/04/20 00:49:17;;;;;;;4.28;2.80;;;6.90;99.90;;;;;;5088354;28;20039;-51
2022/04/20 00:51:56;;;;;;;3.85;2.67;;;6.90;99.90;;;;;;5071324;28;20024;-50
2022/04/20 00:54:21;;;;;;;4.72;2.95;;;6.80;99.90;;;;;;5056052;28;20023;-50
2022/04/20 00:56:47;;;;;;;4.65;2.88;;;6.80;99.90;;;;;;5055733;28;20025;-52
2022/04/20 00:59:15;;;;;;;5.07;2.75;;;6.80;99.90;;;;;;5058166;28;20048;-50
2022/04/20 01:01:41;;;;;;;3.65;2.50;;;6.80;99.90;;;;;;5062640;28;20031;-52
2022/04/20 01:04:06;;;;;;;4.63;2.85;;;6.80;99.90;;;;;;5060406;28;20220;-52
2022/04/20 01:06:32;;;;;;;6.18;3.33;;;6.70;99.90;;;;;;5058573;28;20470;-52
2022/04/20 01:08:57;;;;;;;3.80;2.75;;;6.70;99.90;;;;;;5057266;28;20020;-50
2022/04/20 01:11:23;;;;;;;4.13;2.88;;;6.70;99.90;;;;;;5055373;28;20103;-51
2022/04/20 01:13:48;;;;;;;5.38;2.55;;;6.70;99.90;;;;;;5057337;28;20028;-49
2022/04/20 01:16:14;;;;;;;4.25;3.05;;;6.60;99.90;;;;;;5057707;28;20171;-52
2022/04/20 01:18:43;;;;;;;4.07;2.88;;;6.60;99.90;;;;;;5055731;28;20079;-52
2022/04/20 01:21:10;;;;;;;5.75;3.42;;;6.60;99.90;;;;;;5056168;28;20033;-50
2022/04/20 01:23:36;;;;;;;8.15;3.05;;;6.60;99.90;;;;;;5055565;28;20020;-52
2022/04/20 01:26:08;;;;;;;5.90;3.15;;;6.50;99.90;;;;;;5058515;28;20013;-49
2022/04/20 01:28:36;;;;;;;5.45;3.38;;;6.50;99.90;;;;;;5057307;28;20052;-51
2022/04/20 01:31:02;;;;;;;2.92;2.40;;;6.50;99.90;;;;;;5058680;28;20250;-50
2022/04/20 01:33:27;;;;;;;3.83;2.90;;;6.50;99.90;;;;;;5061748;28;20016;-52
2022/04/20 01:35:53;;;;;;;4.22;2.78;;;6.50;99.90;;;;;;5057702;28;20032;-50
2022/04/20 01:38:18;;;;;;;4.15;2.58;;;6.40;99.90;;;;;;5056425;28;20052;-52
2022/04/20 01:40:44;;;;;;;3.67;2.45;;;6.40;99.90;;;;;;5058355;28;20115;-50
2022/04/20 01:43:09;;;;;;;3.90;2.60;;;6.40;99.90;;;;;;5056917;28;20382;-52
2022/04/20 01:45:35;;;;;;;9.52;3.10;;;6.40;99.90;;;;;;5058374;28;20023;-52
2022/04/20 01:48:00;;;;;;;5.05;2.97;;;6.40;99.90;;;;;;5062144;28;20020;-52
2022/04/20 01:50:26;;;;;;;5.05;3.00;;;6.40;99.90;;;;;;5068899;28;20024;-51
2022/04/20 01:52:51;;;;;;;9.63;3.00;;;6.40;99.90;;;;;;5070565;28;20386;-53
2022/04/20 01:55:17;;;;;;;5.32;2.90;;;6.30;99.90;;;;;;5071133;28;20147;-52
2022/04/20 01:57:43;;;;;;;5.78;2.60;;;6.30;99.90;;;;;;5071089;28;20078;-51
2022/04/20 02:00:10;;;;;;;5.82;3.33;;;6.30;99.90;;;;;;5068200;28;20190;-50
2022/04/20 02:02:36;;;;;;;4.90;3.13;;;6.30;99.90;;;;;;5070378;28;20012;-51
2022/04/20 02:05:07;;;;;;;4.35;2.50;;;6.20;99.90;;;;;;5070878;28;20023;-52
2022/04/20 02:07:32;;;;;;;3.78;3.00;;;6.20;99.90;;;;;;5071047;28;20024;-48
2022/04/20 02:09:58;;;;;;;4.45;2.83;;;6.20;99.90;;;;;;5071645;28;20032;-51
2022/04/20 02:12:24;;;;;;;6.75;3.17;;;6.20;99.90;;;;;;5070341;28;20130;-50
2022/04/20 02:14:50;;;;;;;6.55;2.78;;;6.20;99.90;;;;;;5070838;28;20021;-50
2022/04/20 02:17:16;;;;;;;6.28;3.03;;;6.20;99.90;;;;;;5070531;28;20036;-52
2022/04/20 02:19:41;;;;;;;4.53;3.17;;;6.10;99.90;;;;;;5070985;28;20034;-52
2022/04/20 02:22:07;;;;;;;7.82;3.15;;;6.10;99.90;;;;;;5070216;28;20036;-49
2022/04/20 02:24:32;;;;;;;3.90;2.90;;;6.10;99.90;;;;;;5070735;28;20115;-52
2022/04/20 02:26:58;;;;;;;4.10;3.05;;;6.00;99.90;;;;;;5070540;28;20020;-52
2022/04/20 02:29:23;;;;;;;3.97;2.67;;;6.00;99.90;;;;;;5070510;28;20074;-51
2022/04/20 02:31:49;;;;;;;6.97;3.30;;;6.00;99.90;;;;;;5075798;28;20183;-52
2022/04/20 02:34:14;;;;;;;5.75;3.10;;;5.90;99.90;;;;;;5088320;28;20043;-49
2022/04/20 02:36:41;;;;;;;9.73;3.50;;;5.90;99.90;;;;;;5090726;28;20036;-49
2022/04/20 02:39:06;;;;;;;6.60;2.88;;;5.90;99.90;;;;;;5090707;28;20020;-49
2022/04/20 02:41:35;;;;;;;6.18;3.88;;;6.00;99.90;;;;;;5090334;28;20049;-49
2022/04/20 02:44:01;;;;;;;4.72;2.97;;;5.90;99.90;;;;;;5090404;28;20016;-50
2022/04/20 02:46:26;;;;;;;4.00;2.88;;;5.90;99.90;;;;;;5090527;28;20031;-52
2022/04/20 02:48:52;;;;;;;5.05;3.22;;;5.90;99.90;;;;;;5090575;28;20469;-51
2022/04/20 02:51:17;;;;;;;8.55;3.20;;;5.90;99.90;;;;;;5090573;28;20039;-48
2022/04/20 02:53:43;;;;;;;4.18;3.00;;;5.90;99.90;;;;;;5089872;28;20031;-49
2022/04/20 02:56:08;;;;;;;4.88;3.38;;;5.90;99.90;;;;;;5089546;28;20029;-49
2022/04/20 02:58:34;;;;;;;5.72;3.88;;;5.80;99.90;;;;;;5090267;28;20024;-49
2022/04/20 03:00:59;;;;;;;7.53;3.50;;;5.80;99.90;;;;;;5085609;28;20075;-51
2022/04/20 03:03:25;;;;;;;5.60;3.58;;;5.70;99.90;;;;;;5081329;28;20051;-48
2022/04/20 03:05:51;;;;;;;6.78;3.17;;;5.70;99.90;;;;;;5090557;28;20042;-52
2022/04/20 03:08:16;;;;;;;7.13;3.20;;;5.70;99.90;;;;;;5090158;28;20031;-52
2022/04/20 03:10:42;;;;;;;5.10;3.20;;;5.70;99.90;;;;;;5090042;28;20032;-50
2022/04/20 03:13:08;;;;;;;5.82;3.30;;;5.70;99.90;;;;;;5089291;28;20020;-49
2022/04/20 03:15:33;;;;;;;4.70;3.50;;;5.70;99.90;;;;;;5089921;28;20024;-49
2022/04/20 03:17:59;;;;;;;6.03;3.85;;;5.70;99.90;;;;;;5090289;28;20446;-49
2022/04/20 03:20:25;;;;;;;6.50;3.05;;;5.70;99.90;;;;;;5090125;28;20026;-49
2022/04/20 03:22:50;;;;;;;4.47;3.38;;;5.70;99.90;;;;;;5089391;28;20027;-49
2022/04/20 03:25:16;;;;;;;5.90;3.20;;;5.70;99.90;;;;;;5090142;28;20495;-51
2022/04/20 03:27:41;;;;;;;7.38;3.65;;;5.70;99.90;;;;;;5089979;28;20024;-49
2022/04/20 03:30:07;;;;;;;6.90;3.47;;;5.70;99.90;;;;;;5086149;28;20434;-49
2022/04/20 03:32:34;;;;;;;6.22;3.72;;;5.70;99.90;;;;;;5080241;28;20045;-49
2022/04/20 03:35:00;;;;;;;4.93;3.50;;;5.70;99.90;;;;;;5089761;28;20039;-52
2022/04/20 03:37:26;;;;;;;5.53;3.33;;;5.60;99.90;;;;;;5089734;28;20024;-49
2022/04/20 03:39:52;;;;;;;6.63;3.58;;;5.60;99.90;;;;;;5088241;28;20074;-49
2022/04/20 03:42:18;;;;;;;9.45;4.07;;;5.60;99.90;;;;;;5088918;28;20085;-50
2022/04/20 03:44:43;;;;;;;9.02;4.15;;;5.60;99.90;;;;;;5089606;28;20046;-51
2022/04/20 03:47:09;;;;;;;4.78;3.10;;;5.60;99.90;;;;;;5089351;28;20103;-50
2022/04/20 03:49:34;;;;;;;7.13;3.92;;;5.60;99.90;;;;;;5088381;28;20458;-49
2022/04/20 03:52:01;;;;;;;4.90;3.45;;;5.60;99.90;;;;;;5089048;28;20194;-51
2022/04/20 03:54:27;;;;;;;7.00;4.05;;;5.60;99.90;;;;;;5089637;28;20020;-52
2022/04/20 03:57:05;;;;;;;6.32;3.50;;;5.50;99.90;;;;;;5089606;28;20048;-53
2022/04/20 03:59:32;;;;;;;7.47;3.58;;;5.60;99.90;;;;;;5064141;28;20021;-50
2022/04/20 04:01:58;;;;;;;7.20;3.60;;;5.60;99.90;;;;;;5057715;28;20071;-49
2022/04/20 04:04:24;;;;;;;7.32;3.53;;;5.60;99.90;;;;;;5087909;28;20032;-51
2022/04/20 04:06:49;;;;;;;6.80;4.35;;;5.60;99.90;;;;;;5073690;28;20082;-51
2022/04/20 04:09:15;;;;;;;7.00;3.60;;;5.60;99.90;;;;;;5068663;28;20094;-50
2022/04/20 04:11:41;;;;;;;6.05;3.85;;;5.50;99.90;;;;;;5058972;28;20502;-49
2022/04/20 04:14:07;;;;;;;6.32;3.58;;;5.50;99.90;;;;;;5059247;28;20031;-50
2022/04/20 04:16:39;;;;;;;4.80;3.28;;;5.50;99.90;;;;;;5067410;28;20266;-52
2022/04/20 04:19:08;;;;;;;6.40;3.63;;;5.50;99.90;;;;;;5066976;28;20028;-51
2022/04/20 04:21:38;;;;;;;7.03;4.57;;;5.50;99.90;;;;;;5067275;28;20448;-51
2022/04/20 04:24:04;;;;;;;6.60;3.85;;;5.50;99.90;;;;;;5065860;28;20548;-50
2022/04/20 04:26:30;;;;;;;5.13;3.90;;;5.50;99.90;;;;;;5058635;28;20025;-51
2022/04/20 04:28:57;;;;;;;6.93;3.47;;;5.60;99.90;;;;;;5035511;28;20086;-52
2022/04/20 04:31:23;;;;;;;5.13;3.58;;;5.60;99.90;;;;;;5033705;28;20021;-49
2022/04/20 04:33:49;;;;;;;8.18;3.78;;;5.60;99.90;;;;;;5033445;28;20036;-48
2022/04/20 04:36:14;;;;;;;6.47;3.50;;;5.70;99.90;;;;;;5061806;28;20043;-52
2022/04/20 04:38:40;;;;;;;8.20;3.88;;;5.70;99.90;;;;;;5080941;28;20047;-49
2022/04/20 04:41:05;;;;;;;6.50;3.70;;;5.80;99.90;;;;;;5068195;28;20352;-49
2022/04/20 04:43:31;;;;;;;6.57;3.60;;;5.90;99.90;;;;;;5058677;28;20040;-52
2022/04/20 04:48:42;;;;;;;4.70;3.53;;;6.00;99.90;;;;;;5058491;28;20426;-52
2022/04/20 04:51:09;;;;;;;5.57;3.47;;;6.10;99.90;;;;;;5055433;28;20103;-50
2022/04/20 04:53:35;;;;;;;6.53;3.80;;;6.10;99.90;;;;;;5057179;28;20028;-52
2022/04/20 04:56:01;;;;;;;5.43;3.60;;;6.20;99.90;;;;;;5050756;28;20156;-50
2022/04/20 04:58:27;;;;;;;4.88;3.53;;;6.20;99.90;;;;;;5055230;28;20035;-48
2022/04/20 05:00:53;;;;;;;4.97;3.53;;;6.20;99.90;;;;;;5060561;28;20306;-51
2022/04/20 05:03:19;;;;;;;8.85;3.97;;;6.30;99.90;;;;;;5069301;28;20043;-50
2022/04/20 05:05:45;;;;;;;8.20;3.40;;;6.40;99.90;;;;;;5054446;28;20036;-50
2022/04/20 05:08:10;;;;;;;7.70;3.63;;;6.40;99.90;;;;;;5067588;28;20021;-52
2022/04/20 05:10:39;;;;;;;6.68;3.80;;;6.50;99.90;;;;;;5058095;28;20446;-51
2022/04/20 05:13:06;;;;;;;9.55;4.63;;;6.50;99.90;;;;;;5061887;28;20021;-49
2022/04/20 05:15:32;;;;;;;6.32;3.13;;;6.60;99.90;;;;;;5056634;28;20024;-53
2022/04/20 05:17:57;;;;;;;5.97;3.72;;;6.50;99.90;;;;;;5055712;28;20113;-51
2022/04/20 05:20:23;;;;;;;9.95;4.03;;;6.60;99.90;;;;;;5060227;28;20032;-48
2022/04/20 05:22:49;;;;;;;7.63;3.40;;;6.60;99.90;;;;;;5072200;28;20059;-49
2022/04/20 05:25:15;;;;;;;6.45;3.47;;;6.60;99.90;;;;;;5061814;28;20036;-52
2022/04/20 05:27:40;;;;;;;4.28;3.42;;;6.60;99.90;;;;;;5068141;28;20155;-52
2022/04/20 05:30:08;;;;;;;7.47;4.00;;;6.70;99.90;;;;;;5061257;28;20388;-51
2022/04/20 05:32:34;;;;;;;6.20;3.38;;;6.70;99.90;;;;;;5063448;28;20025;-52
2022/04/20 05:35:01;;;;;;;4.32;3.20;;;6.80;99.90;;;;;;5058427;28;20035;-51
2022/04/20 05:42:56;;;;;;;5.07;3.47;;;6.70;99.90;;;;;;5060402;28;20036;-47
2022/04/20 05:45:22;;;;;;;6.38;3.78;;;6.70;99.90;;;;;;5061054;28;20051;-48
2022/04/20 05:47:48;;;;;;;4.50;3.25;;;6.80;99.90;;;;;;5068091;28;20070;-47
2022/04/20 05:50:14;;;;;;;6.75;4.07;;;6.80;99.90;;;;;;5071314;28;20029;-47
2022/04/20 05:52:39;;;;;;;7.47;4.10;;;6.90;99.90;;;;;;5059180;28;20033;-47
2022/04/20 05:55:06;;;;;;;7.15;3.78;;;6.80;99.90;;;;;;5061214;28;20047;-47
2022/04/20 05:57:33;;;;;;;8.93;4.32;;;6.70;99.90;;;;;;5061767;28;20024;-47
2022/04/20 05:59:58;;;;;;;7.53;3.95;;;6.70;99.90;;;;;;5057718;28;20040;-49
2022/04/20 06:02:23;;;;;;;6.82;3.33;;;6.70;99.90;;;;;;5065778;28;20032;-47
2022/04/20 06:04:49;;;;;;;8.52;3.90;;;6.70;99.90;;;;;;5073288;28;20075;-47
2022/04/20 06:07:15;;;;;;;7.90;4.15;;;6.70;99.90;;;;;;5086903;28;20099;-50
2022/04/20 06:09:41;;;;;;;8.65;4.05;;;6.80;99.90;;;;;;5068702;28;20485;-47
2022/04/20 06:12:07;;;;;;;10.07;4.35;;;6.90;99.90;;;;;;5074870;28;20031;-47
2022/04/20 06:14:33;;;;;;;8.07;4.45;;;6.90;99.90;;;;;;5089454;28;20024;-48
2022/04/20 06:16:58;;;;;;;7.68;4.15;;;7.00;99.90;;;;;;5091077;28;20024;-47
2022/04/20 06:19:24;;;;;;;6.93;3.55;;;7.10;99.90;;;;;;5078606;28;20033;-47
2022/04/20 06:21:49;;;;;;;5.80;3.83;;;7.20;99.90;;;;;;5076018;28;20036;-49
2022/04/20 06:24:15;;;;;;;7.85;4.00;;;7.30;99.90;;;;;;5087814;28;20051;-51
2022/04/20 06:26:40;;;;;;;11.65;4.78;;;7.40;99.90;;;;;;5090945;28;20453;-48
2022/04/20 06:29:06;;;;;;;8.80;4.50;;;7.50;99.90;;;;;;5072621;28;20036;-48
2022/04/20 06:31:31;;;;;;;7.70;4.47;;;7.60;99.90;;;;;;5055960;28;20454;-47
2022/04/20 06:33:59;;;;;;;7.03;4.43;;;7.80;99.90;;;;;;5072873;28;20027;-47
2022/04/20 06:36:25;;;;;;;7.20;4.15;;;7.90;99.90;;;;;;5082413;28;20032;-47
2022/04/20 06:38:51;;;;;;;5.40;3.63;;;8.00;99.90;;;;;;5060412;28;20043;-48
2022/04/20 06:41:17;;;;;;;8.27;4.10;;;8.10;99.90;;;;;;5062257;28;20028;-48
2022/04/20 06:43:43;;;;;;;8.68;4.20;;;8.20;99.90;;;;;;5063907;28;20043;-51
2022/04/20 06:46:09;;;;;;;8.02;3.70;;;8.30;99.90;;;;;;5061593;28;20024;-48
2022/04/20 06:48:35;;;;;;;5.60;4.25;;;8.30;99.90;;;;;;5066712;28;20477;-48
2022/04/20 06:51:03;;;;;;;8.18;4.50;;;8.40;99.90;;;;;;5069783;28;20168;-47
2022/04/20 06:58:53;;;;;;;5.95;4.15;;;8.60;99.90;;;;;;5070590;28;20031;-49
2022/04/20 07:01:18;;;;;;;6.22;4.35;;;8.60;99.90;;;;;;5052207;28;20044;-51
2022/04/20 07:03:44;;;;;;;9.32;5.55;;;8.70;99.90;;;;;;5081175;28;20081;-48
2022/04/20 07:06:10;;;;;;;6.85;4.88;;;8.90;99.90;;;;;;5066767;28;20032;-47
2022/04/20 07:08:36;;;;;;;10.50;4.32;;;8.90;99.90;;;;;;5081161;28;20085;-53
2022/04/20 07:11:03;;;;;;;7.38;4.05;;;9.00;99.90;;;;;;5081731;28;20543;-48
2022/04/20 07:13:28;;;;;;;6.97;4.18;;;9.00;99.90;;;;;;5069331;28;20046;-51
2022/04/20 07:15:54;;;;;;;6.88;4.55;;;9.10;99.90;;;;;;5069815;28;20544;-50
2022/04/20 07:18:20;;;;;;;6.55;4.43;;;9.30;99.90;;;;;;5072791;28;20024;-46
2022/04/20 07:20:45;;;;;;;11.85;5.40;;;9.40;99.90;;;;;;5059253;28;20032;-48
2022/04/20 07:23:12;;;;;;;7.68;4.43;;;9.50;99.90;;;;;;5057781;28;20435;-49
2022/04/20 07:25:38;;;;;;;8.32;4.63;;;9.70;99.90;;;;;;5049852;28;20021;-48
2022/04/20 07:28:05;;;;;;;8.00;4.53;;;10.00;99.90;;;;;;5064225;28;20023;-47
2022/04/20 07:30:30;;;;;;;9.15;4.68;;;10.20;99.90;;;;;;5072370;28;20016;-47
2022/04/20 07:32:56;;;;;;;12.65;5.00;;;10.30;99.90;;;;;;5071676;28;20031;-48
2022/04/20 07:35:21;;;;;;;6.10;4.25;;;10.20;99.90;;;;;;5084400;28;20035;-50
2022/04/20 07:37:47;;;;;;;8.32;4.47;;;10.20;99.90;;;;;;5071247;28;20036;-48
2022/04/20 07:40:14;;;;;;;5.22;4.32;;;10.40;99.90;;;;;;5079731;28;20370;-47
2022/04/20 07:42:40;;;;;;;5.55;4.22;;;10.60;99.90;;;;;;5061864;28;20475;-51
2022/04/20 07:45:06;;;;;;;7.53;4.95;;;10.80;99.90;;;;;;5062693;28;20027;-48
2022/04/20 07:47:32;;;;;;;9.82;4.47;;;10.80;99.80;;;;;;5072956;28;20020;-47
2022/04/20 07:52:47;;;;;;;11.88;4.22;;;11.00;99.50;;;;;;5059102;28;20105;-49
2022/04/20 07:55:24;;;;;;;10.00;4.43;;;11.40;99.90;;;;;;5059422;28;20043;-51
2022/04/20 07:57:56;;;;;;;8.50;4.63;;;11.80;99.00;;;;;;5043838;28;20043;-48
2022/04/20 08:00:22;;;;;;;7.50;4.05;;;11.90;98.00;;;;;;5060391;28;20059;-48
2022/04/20 08:02:49;;;;;;;11.65;4.47;;;12.10;97.80;;;;;;5065326;28;20024;-47
2022/04/20 08:05:17;;;;;;;7.03;4.55;;;12.70;96.70;;;;;;5061806;28;20224;-47
2022/04/20 08:07:44;;;;;;;9.32;4.88;;;13.20;95.20;;;;;;5059081;28;20021;-48
2022/04/20 08:10:11;;;;;;;9.10;4.30;;;14.00;93.50;;;;;;5060169;28;20029;-49
2022/04/20 08:12:42;;;;;;;5.05;3.78;;;14.70;91.40;;;;;;5068955;28;20474;-48
2022/04/20 08:15:08;;;;;;;;;;;15.90;88.10;;;;;;5061587;28;20036;-47
2022/04/20 08:17:35;;;;;;;8.68;4.28;;;16.90;82.80;;;;;;5058927;28;19906;-51
2022/04/20 08:20:01;;;;;;;6.93;3.33;;;17.80;74.30;;;;;;5057900;28;20048;-48
2022/04/20 08:22:26;;;;;;;7.15;3.67;;;18.20;71.50;;;;;;5056820;28;20024;-50
2022/04/20 08:24:53;;;;;;;5.43;3.50;;;18.50;67.80;;;;;;5059539;28;20024;-48
2022/04/20 08:27:20;;;;;;;4.88;3.50;;;18.60;65.40;;;;;;5055337;28;20537;-48
2022/04/20 08:29:47;;;;;;;7.35;3.88;;;19.00;64.80;;;;;;5064419;28;20512;-49
2022/04/20 08:32:13;;;;;;;4.60;3.10;;;19.50;65.10;;;;;;5054741;28;20532;-48
2022/04/20 08:34:39;;;;;;;5.30;3.42;;;19.80;63.10;;;;;;5061987;28;20037;-49
2022/04/20 08:37:04;;;;;;;8.00;3.38;;;20.70;64.10;;;;;;5055839;28;20105;-49
2022/04/20 08:39:30;;;;;;;6.30;3.45;;;22.20;56.80;;;;;;5053807;28;20041;-48
2022/04/20 08:41:56;;;;;;;3.85;3.17;;;22.40;55.40;;;;;;5056057;28;20287;-49
2022/04/20 08:44:29;;;;;;;4.95;3.28;;;23.40;53.90;;;;;;5056246;28;20025;-48
2022/04/20 08:46:59;;;;;;;5.45;3.35;;;24.00;50.90;;;;;;5058027;28;20037;-49
2022/04/20 08:49:24;;;;;;;;;;;24.40;50.50;;;;;;5058133;28;20093;-51
2022/04/20 08:54:35;;;;;;;4.60;2.95;;;25.50;47.60;;;;;;5060307;28;20054;-48
2022/04/20 08:57:17;;;;;;;4.32;2.85;;;26.10;44.40;;;;;;5059427;28;20402;-50
2022/04/20 08:59:48;;;;;;;4.35;2.90;;;25.50;45.10;;;;;;5068932;28;20028;-50
2022/04/20 09:02:15;;;;;;;6.32;3.13;;;24.30;46.30;;;;;;5055607;28;20486;-48
2022/04/20 09:04:41;;;;;;;4.68;3.42;;;24.70;45.50;;;;;;5084263;28;20116;-49
2022/04/20 09:07:11;;;;;;;5.93;3.38;;;24.50;47.30;;;;;;5052393;28;20025;-52
2022/04/20 09:09:37;;;;;;;5.13;2.95;;;24.60;45.00;;;;;;5050501;28;20066;-51
2022/04/20 09:12:10;;;;;;;5.35;3.10;;;24.90;46.70;;;;;;5060127;28;20431;-51
2022/04/20 09:14:36;;;;;;;5.35;2.67;;;25.10;45.80;;;;;;5071971;28;20509;-52
2022/04/20 09:17:02;;;;;;;4.82;3.38;;;25.90;46.10;;;;;;5069077;28;20035;-49
2022/04/20 09:19:28;;;;;;;4.72;3.20;;;26.10;45.20;;;;;;5079967;28;20028;-50
2022/04/20 09:21:55;;;;;;;5.25;3.50;;;25.80;44.00;;;;;;5051761;28;20036;-51
2022/04/20 09:24:21;;;;;;;3.67;2.90;;;26.10;45.00;;;;;;5053787;28;20047;-51
2022/04/20 09:26:56;;;;;;;5.47;2.97;;;26.70;43.50;;;;;;5077250;28;20032;-49
2022/04/20 09:29:22;;;;;;;8.50;2.80;;;26.10;43.40;;;;;;5051959;28;20025;-48
2022/04/20 09:31:53;;;;;;;10.45;3.45;;;25.90;45.10;;;;;;5066871;28;20028;-50
2022/04/20 09:34:24;;;;;;;21.58;7.20;;;25.50;42.70;;;;;;5078260;28;20434;-43
2022/04/20 09:36:51;;;;;;;4.03;3.30;;;25.50;45.10;;;;;;5085671;28;20389;-43
2022/04/20 09:39:16;;;;;;;3.60;3.13;;;26.80;43.40;;;;;;5081637;28;20029;-43
2022/04/20 09:41:58;;;;;;;3.55;2.50;;;27.20;42.70;;;;;;5061283;28;20033;-41
2022/04/20 09:44:25;;;;;;;5.10;3.15;;;28.10;42.20;;;;;;5069573;28;20020;-41
2022/04/20 09:49:56;;;;;;;3.03;2.40;;;26.80;42.10;;;;;;5077370;28;20035;-42
2022/04/20 09:52:34;;;;;;;5.00;2.38;;;28.00;40.30;;;;;;5065751;28;20025;-42
2022/04/20 09:55:01;;;;;;;4.75;2.58;;;27.10;41.00;;;;;;5068572;28;20201;-42
2022/04/20 09:57:28;;;;;;;4.72;3.50;;;27.20;41.00;;;;;;5078188;28;20585;-42
2022/04/20 09:59:55;;;;;;;3.20;2.80;;;26.70;42.20;;;;;;5058277;28;20032;-41
2022/04/20 10:02:20;;;;;;;5.63;2.90;;;27.50;39.90;;;;;;5063993;28;20025;-42
2022/04/20 10:04:47;;;;;;;7.30;3.55;;;28.00;40.90;;;;;;5059764;28;20102;-42
2022/04/20 10:07:13;;;;;;;4.13;2.72;;;27.10;41.10;;;;;;5063299;28;20159;-43
2022/04/20 10:09:39;;;;;;;4.07;2.42;;;27.40;40.40;;;;;;5071256;28;20485;-43
2022/04/20 10:12:06;;;;;;;3.22;2.10;;;27.20;40.30;;;;;;5064882;28;20513;-46
2022/04/20 10:17:24;;;;;;;5.20;2.10;;;28.20;35.90;;;;;;5063444;28;20070;-43
2022/04/20 10:19:52;;;;;;;4.10;1.58;;;29.60;35.80;;;;;;5067539;28;20489;-43
2022/04/20 10:22:18;;;;;;;3.25;1.98;;;29.80;36.50;;;;;;5060161;28;20029;-52
2022/04/20 10:24:49;;;;;;;2.03;1.75;;;29.50;37.20;;;;;;5057021;28;20029;-48
2022/04/20 10:27:52;;;;;;;4.03;2.17;;;29.40;36.90;;;;;;5051175;28;20599;-51
2022/04/20 10:30:44;;;;;;;3.17;1.80;;;29.00;38.20;;;;;;5055933;28;20501;-51
2022/04/20 10:33:13;;;;;;;3.85;2.20;;;29.70;36.70;;;;;;5061264;28;20159;-49
2022/04/20 10:36:01;;;;;;;3.28;1.98;;;30.60;36.80;;;;;;5059682;28;20517;-49
2022/04/20 10:38:30;;;;;;;4.38;2.10;;;31.00;35.90;;;;;;5060372;28;20025;-49
2022/04/20 10:41:06;;;;;;;2.50;1.92;;;29.60;36.00;;;;;;5061572;28;20048;-51
2022/04/20 10:43:34;;;;;;;2.97;1.88;;;30.20;36.10;;;;;;5061800;28;20032;-50
2022/04/20 10:46:02;;;;;;;4.05;2.00;;;30.30;35.90;;;;;;5082075;28;20132;-49
2022/04/20 10:48:42;;;;;;;5.85;2.35;;;29.40;34.60;;;;;;5078097;28;20045;-51
2022/04/20 10:51:16;;;;;;;3.92;1.98;;;28.40;34.80;;;;;;5066089;28;20029;-48
2022/04/20 10:53:47;;;;;;;5.70;2.10;;;28.30;36.20;;;;;;5063544;28;20439;-50
2022/04/20 10:56:14;;;;;;;4.68;2.67;;;28.30;35.70;;;;;;5067139;28;20029;-47
2022/04/20 10:59:04;;;;;;;7.20;2.05;;;28.40;36.10;;;;;;5059420;28;20566;-47
2022/04/20 11:01:31;;;;;;;4.20;2.47;;;29.20;34.90;;;;;;5052528;28;20044;-48
2022/04/20 11:04:05;;;;;;;3.47;2.10;;;29.40;35.80;;;;;;5080056;28;20051;-48
2022/04/20 11:07:09;;;;;;;5.85;2.53;;;29.60;36.20;;;;;;5090383;28;20081;-48
2022/04/20 11:09:46;;;;;;;4.78;2.40;;;29.90;36.20;;;;;;4990365;28;20036;-48
2022/04/20 11:21:03;;;;;;;3.10;2.10;;;27.60;35.30;;;;;;5090148;28;20036;-47
2022/04/20 11:23:55;;;;;;;2.88;2.10;;;26.00;35.80;;;;;;5068216;28;20163;-47
2022/04/20 11:26:24;;;;;;;4.82;2.60;;;24.80;37.50;;;;;;5071069;28;20062;-49
2022/04/20 11:28:54;;;;;;;5.68;2.72;;;23.40;38.60;;;;;;5069574;28;20529;-48
2022/04/20 11:31:19;;;;;;;2.00;1.70;;;22.50;40.50;;;;;;5063687;28;20065;-49
2022/04/20 11:33:46;;;;;;;6.10;2.13;;;22.20;40.70;;;;;;5080944;28;20132;-48
2022/04/20 11:36:13;;;;;;;4.15;2.10;;;21.50;41.70;;;;;;5089487;28;20054;-48
2022/04/20 11:38:44;;;;;;;3.00;1.50;;;21.00;43.00;;;;;;5081193;28;20029;-50
2022/04/20 11:41:11;;;;;;;3.03;1.63;;;20.90;41.60;;;;;;5063408;28;20044;-48
2022/04/20 11:43:38;;;;;;;2.50;2.10;;;20.10;42.00;;;;;;5076621;28;20129;-47
2022/04/20 11:46:05;;;;;;;2.50;2.20;;;19.90;43.00;;;;;;5079020;28;20547;-47
2022/04/20 11:48:32;;;;;;;2.60;1.98;;;19.50;42.80;;;;;;5086678;28;20020;-49
2022/04/20 11:51:02;;;;;;;4.78;2.85;;;19.10;43.60;;;;;;5063277;28;20044;-47
2022/04/20 11:53:36;;;;;;;5.70;3.33;;;18.90;44.60;;;;;;5052168;28;20040;-47
2022/04/20 11:56:03;;;;;;;4.30;2.47;;;18.70;45.00;;;;;;5073418;28;20020;-47
2022/04/20 11:58:30;;;;;;;4.35;2.17;;;18.40;46.10;;;;;;5078448;28;20116;-51
2022/04/20 12:01:03;;;;;;;5.10;2.00;;;18.30;47.90;;;;;;5064710;28;20061;-50
2022/04/20 12:03:37;;;;;;;5.70;2.45;;;18.20;47.00;;;;;;5074809;28;20020;-47
2022/04/20 12:06:04;;;;;;;7.20;2.03;;;18.10;48.40;;;;;;5058942;28;20052;-48
2022/04/20 12:08:35;;;;;;;3.25;1.67;;;18.10;46.50;;;;;;5085747;28;20024;-47
2022/04/20 12:11:04;;;;;;;5.88;2.08;;;18.40;46.40;;;;;;5058615;28;20043;-53
2022/04/20 12:13:31;;;;;;;5.03;2.30;;;18.40;47.40;;;;;;5055203;28;20025;-49
2022/04/20 12:16:01;;;;;;;4.47;2.10;;;18.30;47.30;;;;;;5070816;28;20016;-48
2022/04/20 12:18:33;;;;;;;2.47;2.15;;;18.10;48.30;;;;;;5070153;28;20103;-47
2022/04/20 12:20:59;;;;;;;8.05;2.90;;;18.10;48.00;;;;;;5079078;28;20157;-47
2022/04/20 12:23:33;;;;;;;14.43;5.05;;;18.30;48.20;;;;;;5057424;28;20032;-50
2022/04/20 12:26:02;;;;;;;9.95;4.22;;;18.10;48.90;;;;;;5063720;28;20116;-50
2022/04/20 12:28:44;;;;;;;5.57;2.92;;;17.60;47.80;;;;;;5078108;28;20023;-47
2022/04/20 12:31:12;;;;;;;2.80;2.10;;;17.60;48.40;;;;;;5061712;28;20083;-48
2022/04/20 12:33:38;;;;;;;3.95;2.05;;;17.10;49.50;;;;;;5068219;28;20175;-48
2022/04/20 12:36:09;;;;;;;5.20;2.47;;;17.10;49.20;;;;;;5075293;28;20031;-47
2022/04/20 12:38:44;;;;;;;;;;;16.60;49.40;;;;;;5072578;28;20047;-48
2022/04/20 12:41:45;;;;;;;4.15;2.10;;;16.80;48.80;;;;;;5078121;28;20346;-49
2022/04/20 12:44:36;;;;;;;5.43;1.90;;;16.80;49.50;;;;;;5073160;28;20031;-47
2022/04/20 12:47:22;;;;;;;10.02;2.67;;;17.00;49.70;;;;;;5071760;28;20024;-47
2022/04/20 12:49:53;;;;;;;4.03;1.80;;;17.30;50.70;;;;;;5047694;28;20161;-47
2022/04/20 12:52:25;;;;;;;5.57;1.75;;;17.40;48.70;;;;;;5048143;28;20029;-49
2022/04/20 12:54:56;;;;;;;3.13;2.08;;;17.40;50.10;;;;;;5048622;28;20339;-47
2022/04/20 13:03:04;;;;;;;3.85;2.40;;;16.90;50.10;;;;;;5070180;28;20082;-48
2022/04/20 13:05:35;;;;;;;2.95;1.88;;;16.70;50.30;;;;;;5086287;28;20128;-47
2022/04/20 13:08:01;;;;;;;5.28;1.88;;;16.70;51.00;;;;;;5070421;28;20393;-47
2022/04/20 13:10:29;;;;;;;3.72;1.73;;;16.70;50.40;;;;;;5088441;28;20020;-47
2022/04/20 13:12:55;;;;;;;4.38;1.70;;;16.70;50.40;;;;;;5087748;28;20103;-48
2022/04/20 13:15:22;;;;;;;5.68;2.30;;;16.70;51.10;;;;;;5088394;28;20020;-46
2022/04/20 13:17:48;;;;;;;4.47;2.28;;;16.60;50.40;;;;;;5088022;28;20030;-47
2022/04/20 13:20:16;;;;;;;4.00;2.05;;;16.40;50.30;;;;;;5088313;28;20020;-47
2022/04/20 13:22:41;;;;;;;3.63;2.08;;;16.50;50.80;;;;;;5087851;28;20020;-47
2022/04/20 13:27:54;;;;;;;3.03;1.92;;;16.60;49.80;;;;;;5088878;28;20062;-48
2022/04/20 13:30:27;;;;;;;3.08;2.13;;;16.40;49.20;;;;;;5088230;28;20028;-47
2022/04/20 13:32:55;;;;;;;4.43;2.05;;;16.10;50.80;;;;;;5072698;28;20021;-47
2022/04/20 13:35:21;;;;;;;7.10;2.08;;;16.30;51.10;;;;;;5086234;28;20540;-49
2022/04/20 13:37:46;;;;;;;3.08;2.35;;;16.50;50.10;;;;;;5088150;28;20032;-49